Terminal Aerodrome Forecast
Issued by NWS Jackson, KY

Home | Current Version | Previous Version | Text Only | Print | Product List | Glossary On
Versions: 1 2 3 4 5 6 7 8 9 10 11 12 13 14 15 16 17 18
000
FTUS43 KJKL 271200 AAB
TAFLOZ
TAF AMD
KLOZ 271231Z 2713/2812 32006KT 3SM -SN BR VCSH BKN007 OVC030
     FM271330 31006KT 6SM -RASN BR BKN010
     FM271400 31009KT P6SM BKN020
     FM271600 30010KT P6SM BKN035=

USA.gov is the U.S. government's official web portal to all federal, state and local government web resources and services.